Waseca, Minnesota
Current Conditions -  °F | °C
As of 7:55 AM on Monday 24 Nov 2014 (Local Time) from KACQ Reporting Station
Overcast Overcast  
Wind Chill:   Ceiling: 1200
Heat Index: 19°   Visibility: 10mi
Dew Point: 14°   Wind: 23mph
Humidity: 80%   Direction: 300°WNW
Pressure: 29.42"   Gusts: 31mph
Location:  44.08°N, 93.51°W
Report Text: KACQ 241355Z AUTO 30020G27KT 10SM OVC012 M07/M10 A2942 RMK AO2
Loading
Personal Weather Stations






























Interactive Weather Map New forecast layout! Learn more

10-Day Weather Forecast

Advertisements
Track Severe Weather on mobile